APL England — 9VDD2 — position and weather

sailwx.info

Track history (hours):
 
Tides and Currents Weather Stations Pressure Air Temp Water Temp Dewpoint Dewpoint Depression Visibility Wind Speed Wind Dir Waves Ship Positions

APL England

Last reported at 2017-Dec-16 07:24 UTC. Time now 2017-Dec-17 17:32 UTC.
Position N 27°13' W 079°50'.

Type: Cargo ship. MMSI: 563722000.

Date/timePositionNaut miles runAvg speedWind from/ knotsBaromVisibWave heightAir tempDewpointWater temp
2017-Dec-16 07:24N 27°13' W 079°50'510.3
2017-Dec-16 06:53N 27°08' W 079°48'410.3
2017-Dec-16 06:30N 27°04' W 079°48'510.3
2017-Dec-16 06:00N 26°59' W 079°47'510.1
2017-Dec-16 05:30N 26°54' W 079°46'510.1
2017-Dec-16 05:00N 26°49' W 079°46'510.0
2017-Dec-16 04:29N 26°43' W 079°46'5 9.8
2017-Dec-16 03:59N 26°39' W 079°47'5 9.6
2017-Dec-16 03:29N 26°34' W 079°45'510.1
2017-Dec-16 03:00N 26°29' W 079°45'510.0
2017-Dec-16 02:30N 26°24' W 079°46'510.1
2017-Dec-16 02:00N 26°19' W 079°48'510.2
2017-Dec-16 01:30N 26°15' W 079°50'510.3
2017-Dec-16 01:00N 26°10' W 079°52'510.3
2017-Dec-16 00:30N 26°05' W 079°54'5 9.6
2017-Dec-16 00:00N 26°01' W 079°57'5 9.8
2017-Dec-15 23:30N 25°56' W 079°59'5 9.6
2017-Dec-15 23:00N 25°52' W 080°01'5 9.1
2017-Dec-15 22:30N 25°48' W 080°03'5 9.6
2017-Dec-15 22:00N 25°46' W 080°08'1 1.1
2017-Dec-15 21:28N 25°46' W 080°09'0 0.0
2017-Dec-15 20:58N 25°46' W 080°09'0 0.0
2017-Dec-15 20:28N 25°46' W 080°09'0 0.0
2017-Dec-15 19:58N 25°46' W 080°09'0 0.0
2017-Dec-15 19:28N 25°46' W 080°09'0 0.0
2017-Dec-15 18:55N 25°46' W 080°09'0 0.0
2017-Dec-15 18:28N 25°46' W 080°09'0 0.0
2017-Dec-15 17:55N 25°46' W 080°09'0 0.0
2017-Dec-15 17:28N 25°46' W 080°09'0 0.0
2017-Dec-15 16:58N 25°46' W 080°09'0 0.0
2017-Dec-15 16:28N 25°46' W 080°09'0 0.0
2017-Dec-15 15:55N 25°46' W 080°09'0 0.0
2017-Dec-15 15:28N 25°46' W 080°09'0 0.0
2017-Dec-15 14:58N 25°46' W 080°09'0 0.0
2017-Dec-15 14:28N 25°46' W 080°09'0 0.0
2017-Dec-15 13:58N 25°46' W 080°09'0 0.0
2017-Dec-15 13:28N 25°46' W 080°09'0 0.0
2017-Dec-15 12:58N 25°46' W 080°09'0 0.0
2017-Dec-15 12:28N 25°46' W 080°09'0 0.0
2017-Dec-15 11:58N 25°46' W 080°09'0 0.0
2017-Dec-15 11:28N 25°46' W 080°09'0 0.0
2017-Dec-15 10:58N 25°46' W 080°09'0 0.0
2017-Dec-15 10:28N 25°46' W 080°09'0 0.0
2017-Dec-15 09:58N 25°46' W 080°09'0 0.0
2017-Dec-15 09:28N 25°46' W 080°09'0 0.0
2017-Dec-15 08:58N 25°46' W 080°09'0 0.0
2017-Dec-15 08:28N 25°46' W 080°09'0 0.0
2017-Dec-15 07:55N 25°46' W 080°09'0 0.0
2017-Dec-15 07:28N 25°46' W 080°09'0 0.0
2017-Dec-15 06:55N 25°46' W 080°09'0 0.0
2017-Dec-15 06:28N 25°46' W 080°09'0 0.0
2017-Dec-15 05:58N 25°46' W 080°09'0 0.0
2017-Dec-15 05:28N 25°46' W 080°09'0 0.0
2017-Dec-15 04:58N 25°46' W 080°09'0 0.0
2017-Dec-15 04:28N 25°46' W 080°09'0 0.0
2017-Dec-15 03:58N 25°46' W 080°09'0 0.0
2017-Dec-15 02:28N 25°46' W 080°09'0 0.1
2017-Dec-15 01:00N 25°46' W 080°09'3 5.4
2017-Dec-15 00:30N 25°46' W 080°06'  
2017-Dec-12 11:02N 29°28' W 089°39'114.4
2017-Dec-12 10:59N 29°27' W 089°38'1811.1
2017-Dec-12 09:20N 29°16' W 089°21'  
2017-Dec-09 10:25N 29°21' W 094°42'1310.4
2017-Dec-09 09:13N 29°30' W 094°52'2 9.2
2017-Dec-09 09:00N 29°31' W 094°53'5 9.2
2017-Dec-09 08:31N 29°35' W 094°56'3 6.8
2017-Dec-09 08:00N 29°37' W 094°60'1 2.8
2017-Dec-09 07:30N 29°37' W 095°01'1 1.3
2017-Dec-09 06:58N 29°37' W 095°00'0 0.0
2017-Dec-09 06:28N 29°37' W 095°00'0 0.0
2017-Dec-09 05:58N 29°37' W 095°00'0 0.0
2017-Dec-09 05:28N 29°37' W 095°00'0 0.0
2017-Dec-09 04:58N 29°37' W 095°00'0 0.0
2017-Dec-09 04:28N 29°37' W 095°00'0 0.0
2017-Dec-09 03:58N 29°37' W 095°00'0 0.0
2017-Dec-09 03:28N 29°37' W 095°00'0 0.0
2017-Dec-09 02:58N 29°37' W 095°00'0 0.0
2017-Dec-09 02:28N 29°37' W 095°00'0 0.0
2017-Dec-09 01:58N 29°37' W 095°00'0 0.0
2017-Dec-09 01:28N 29°37' W 095°00'0 0.0
2017-Dec-09 00:58N 29°37' W 095°00'0 0.0
2017-Dec-09 00:25N 29°37' W 095°00'0 0.0
2017-Dec-08 23:55N 29°37' W 095°00'0 0.0
2017-Dec-08 23:28N 29°37' W 095°00'0 0.0
2017-Dec-08 22:58N 29°37' W 095°00'0 0.0
2017-Dec-08 22:28N 29°37' W 095°00'0 0.0
2017-Dec-08 21:58N 29°37' W 095°00'0 0.0
2017-Dec-08 21:28N 29°37' W 095°00'0 0.0
2017-Dec-08 20:58N 29°37' W 095°00'0 0.0
2017-Dec-08 20:28N 29°37' W 095°00'0 0.0
2017-Dec-08 19:58N 29°37' W 095°00'0 0.0
2017-Dec-08 19:28N 29°37' W 095°00'0 0.0
2017-Dec-08 18:58N 29°37' W 095°00'0 0.0
2017-Dec-08 18:28N 29°37' W 095°00'0 0.0
2017-Dec-08 17:58N 29°37' W 095°00'0 0.0
2017-Dec-08 17:28N 29°37' W 095°00'0 0.0
2017-Dec-08 16:52N 29°37' W 095°00'0 0.0
2017-Dec-08 16:28N 29°37' W 095°00'0 0.0
2017-Dec-08 15:58N 29°37' W 095°00'0 0.0
2017-Dec-08 15:28N 29°37' W 095°00'0 0.0
2017-Dec-08 14:58N 29°37' W 095°00'0 0.0
2017-Dec-08 14:28N 29°37' W 095°00'0 0.0
2017-Dec-08 13:58N 29°37' W 095°00'0 0.0
2017-Dec-08 13:28N 29°37' W 095°00'0 0.0
2017-Dec-08 12:58N 29°37' W 095°00'0 0.0
2017-Dec-08 12:28N 29°37' W 095°00'0 0.0
2017-Dec-08 11:58N 29°37' W 095°00'0 0.0
2017-Dec-08 11:28N 29°37' W 095°00'0 0.0
2017-Dec-08 10:58N 29°37' W 095°00'0 0.0
2017-Dec-08 10:28N 29°37' W 095°00'0 0.0
2017-Dec-08 09:58N 29°37' W 095°00'0 0.0
2017-Dec-08 09:28N 29°37' W 095°00'0 0.0
2017-Dec-08 08:58N 29°37' W 095°00'0 0.0
2017-Dec-08 08:28N 29°37' W 095°00'0 0.0
2017-Dec-08 07:58N 29°37' W 095°00'0 0.0
2017-Dec-08 07:28N 29°37' W 095°00'0 0.0
2017-Dec-08 06:58N 29°37' W 095°00'0 0.0
2017-Dec-08 06:28N 29°37' W 095°00'0 0.0
2017-Dec-08 05:58N 29°37' W 095°00'0 0.0
2017-Dec-08 05:25N 29°37' W 095°00'0 0.0
2017-Dec-08 04:58N 29°37' W 095°00'0 0.0
2017-Dec-08 04:28N 29°37' W 095°00'0 0.0
2017-Dec-08 03:58N 29°37' W 095°00'0 0.0
2017-Dec-08 03:28N 29°37' W 095°00'0 0.0
2017-Dec-08 02:58N 29°37' W 095°00'0 0.0
2017-Dec-08 02:28N 29°37' W 095°00'0 0.0
2017-Dec-08 01:55N 29°37' W 095°00'0 0.0
2017-Dec-08 01:28N 29°37' W 095°00'0 0.0
2017-Dec-08 00:58N 29°37' W 095°00'0 0.0
2017-Dec-08 00:28N 29°37' W 095°00'0 0.0
2017-Dec-07 23:58N 29°37' W 095°00'0 0.0
2017-Dec-07 23:28N 29°37' W 095°00'0 0.0
2017-Dec-07 22:58N 29°37' W 095°00'0 0.0
2017-Dec-07 22:28N 29°37' W 095°00'0 0.0
2017-Dec-07 21:58N 29°37' W 095°00'0 0.0
2017-Dec-07 21:28N 29°37' W 095°00'0 0.0
2017-Dec-07 20:58N 29°37' W 095°00'0 0.0
2017-Dec-07 20:28N 29°37' W 095°00'0 0.0
2017-Dec-07 19:58N 29°37' W 095°00'0 0.0
2017-Dec-07 19:28N 29°37' W 095°00'0 0.0
2017-Dec-07 18:55N 29°37' W 095°00'0 0.0
2017-Dec-07 18:28N 29°37' W 095°00'0 0.0
2017-Dec-07 17:58N 29°37' W 095°00'0 0.0
2017-Dec-07 17:28N 29°37' W 095°00'0 0.0
2017-Dec-07 16:58N 29°37' W 095°00'0 0.0
2017-Dec-07 16:28N 29°37' W 095°00'0 0.0
2017-Dec-07 15:58N 29°37' W 095°00'0 0.0
2017-Dec-07 15:25N 29°37' W 095°00'0 0.0
2017-Dec-07 14:58N 29°37' W 095°00'0 0.0
2017-Dec-07 14:28N 29°37' W 095°00'0 0.0
2017-Dec-07 13:58N 29°37' W 095°00'0 0.0
2017-Dec-07 13:28N 29°37' W 095°00'0 0.0
2017-Dec-07 12:58N 29°37' W 095°00'0 0.0
2017-Dec-07 12:28N 29°37' W 095°00'0 0.0
2017-Dec-07 11:58N 29°37' W 095°00'0 0.0
2017-Dec-07 11:28N 29°37' W 095°00'0 0.0
2017-Dec-07 10:58N 29°37' W 095°00'0 0.0
2017-Dec-07 10:28N 29°37' W 095°00'0 0.0
2017-Dec-07 09:58N 29°37' W 095°00'0 0.0
2017-Dec-07 09:28N 29°37' W 095°00'0 0.0
2017-Dec-07 08:58N 29°37' W 095°00'0 0.0
2017-Dec-07 08:28N 29°37' W 095°00'0 0.0
2017-Dec-07 07:58N 29°37' W 095°00'0 0.0
2017-Dec-07 07:28N 29°37' W 095°00'0 0.0
2017-Dec-07 06:55N 29°37' W 095°00'0 0.0
2017-Dec-07 06:28N 29°37' W 095°00'0 0.0
2017-Dec-07 05:58N 29°37' W 095°00'0 0.0
2017-Dec-07 05:28N 29°37' W 095°00'0 0.0
2017-Dec-07 04:58N 29°37' W 095°00'0 0.0
2017-Dec-07 04:28N 29°37' W 095°00'0 0.0
2017-Dec-07 03:58N 29°37' W 095°00'0 0.0
2017-Dec-07 03:25N 29°37' W 095°00'0 0.0
2017-Dec-07 02:58N 29°37' W 095°00'0 0.0
2017-Dec-07 02:28N 29°37' W 095°00'0 0.0
2017-Dec-07 01:58N 29°37' W 095°00'0 0.0
2017-Dec-07 01:22N 29°37' W 095°00'0 0.4
2017-Dec-07 01:00N 29°37' W 095°00'3 5.8
2017-Dec-07 00:30N 29°36' W 094°57'5 9.4
2017-Dec-07 00:00N 29°32' W 094°54'510.9
2017-Dec-06 23:30N 29°28' W 094°51'712.5
2017-Dec-06 22:54N 29°21' W 094°47'  
Track history (hours):
 
Tides and Currents Weather Stations Pressure Air Temp Water Temp Dewpoint Dewpoint Depression Visibility Wind Speed Wind Dir Waves Ship Positions

APL England

Last reported at 2017-Dec-16 07:24 UTC. Time now 2017-Dec-17 17:32 UTC.
Position N 27°13' W 079°50'.

Type: Cargo ship. MMSI: 563722000.

Date/timePositionNaut miles runAvg speedWind from/ knotsBaromVisibWave heightAir tempDewpointWater temp
2017-Dec-16 07:24N 27°13' W 079°50'510.3
2017-Dec-16 06:53N 27°08' W 079°48'410.3
2017-Dec-16 06:30N 27°04' W 079°48'510.3
2017-Dec-16 06:00N 26°59' W 079°47'510.1
2017-Dec-16 05:30N 26°54' W 079°46'510.1
2017-Dec-16 05:00N 26°49' W 079°46'510.0
2017-Dec-16 04:29N 26°43' W 079°46'5 9.8
2017-Dec-16 03:59N 26°39' W 079°47'5 9.6
2017-Dec-16 03:29N 26°34' W 079°45'510.1
2017-Dec-16 03:00N 26°29' W 079°45'510.0
2017-Dec-16 02:30N 26°24' W 079°46'510.1
2017-Dec-16 02:00N 26°19' W 079°48'510.2
2017-Dec-16 01:30N 26°15' W 079°50'510.3
2017-Dec-16 01:00N 26°10' W 079°52'510.3
2017-Dec-16 00:30N 26°05' W 079°54'5 9.6
2017-Dec-16 00:00N 26°01' W 079°57'5 9.8
2017-Dec-15 23:30N 25°56' W 079°59'5 9.6
2017-Dec-15 23:00N 25°52' W 080°01'5 9.1
2017-Dec-15 22:30N 25°48' W 080°03'5 9.6
2017-Dec-15 22:00N 25°46' W 080°08'1 1.1
2017-Dec-15 21:28N 25°46' W 080°09'0 0.0
2017-Dec-15 20:58N 25°46' W 080°09'0 0.0
2017-Dec-15 20:28N 25°46' W 080°09'0 0.0
2017-Dec-15 19:58N 25°46' W 080°09'0 0.0
2017-Dec-15 19:28N 25°46' W 080°09'0 0.0
2017-Dec-15 18:55N 25°46' W 080°09'0 0.0
2017-Dec-15 18:28N 25°46' W 080°09'0 0.0
2017-Dec-15 17:55N 25°46' W 080°09'0 0.0
2017-Dec-15 17:28N 25°46' W 080°09'0 0.0
2017-Dec-15 16:58N 25°46' W 080°09'0 0.0
2017-Dec-15 16:28N 25°46' W 080°09'0 0.0
2017-Dec-15 15:55N 25°46' W 080°09'0 0.0
2017-Dec-15 15:28N 25°46' W 080°09'0 0.0
2017-Dec-15 14:58N 25°46' W 080°09'0 0.0
2017-Dec-15 14:28N 25°46' W 080°09'0 0.0
2017-Dec-15 13:58N 25°46' W 080°09'0 0.0
2017-Dec-15 13:28N 25°46' W 080°09'0 0.0
2017-Dec-15 12:58N 25°46' W 080°09'0 0.0
2017-Dec-15 12:28N 25°46' W 080°09'0 0.0
2017-Dec-15 11:58N 25°46' W 080°09'0 0.0
2017-Dec-15 11:28N 25°46' W 080°09'0 0.0
2017-Dec-15 10:58N 25°46' W 080°09'0 0.0
2017-Dec-15 10:28N 25°46' W 080°09'0 0.0
2017-Dec-15 09:58N 25°46' W 080°09'0 0.0
2017-Dec-15 09:28N 25°46' W 080°09'0 0.0
2017-Dec-15 08:58N 25°46' W 080°09'0 0.0
2017-Dec-15 08:28N 25°46' W 080°09'0 0.0
2017-Dec-15 07:55N 25°46' W 080°09'0 0.0
2017-Dec-15 07:28N 25°46' W 080°09'0 0.0
2017-Dec-15 06:55N 25°46' W 080°09'0 0.0
2017-Dec-15 06:28N 25°46' W 080°09'0 0.0
2017-Dec-15 05:58N 25°46' W 080°09'0 0.0
2017-Dec-15 05:28N 25°46' W 080°09'0 0.0
2017-Dec-15 04:58N 25°46' W 080°09'0 0.0
2017-Dec-15 04:28N 25°46' W 080°09'0 0.0
2017-Dec-15 03:58N 25°46' W 080°09'0 0.0
2017-Dec-15 02:28N 25°46' W 080°09'0 0.1
2017-Dec-15 01:00N 25°46' W 080°09'3 5.4
2017-Dec-15 00:30N 25°46' W 080°06'  
2017-Dec-12 11:02N 29°28' W 089°39'114.4
2017-Dec-12 10:59N 29°27' W 089°38'1811.1
2017-Dec-12 09:20N 29°16' W 089°21'  
2017-Dec-09 10:25N 29°21' W 094°42'1310.4
2017-Dec-09 09:13N 29°30' W 094°52'2 9.2
2017-Dec-09 09:00N 29°31' W 094°53'5 9.2
2017-Dec-09 08:31N 29°35' W 094°56'3 6.8
2017-Dec-09 08:00N 29°37' W 094°60'1 2.8
2017-Dec-09 07:30N 29°37' W 095°01'1 1.3
2017-Dec-09 06:58N 29°37' W 095°00'0 0.0
2017-Dec-09 06:28N 29°37' W 095°00'0 0.0
2017-Dec-09 05:58N 29°37' W 095°00'0 0.0
2017-Dec-09 05:28N 29°37' W 095°00'0 0.0
2017-Dec-09 04:58N 29°37' W 095°00'0 0.0
2017-Dec-09 04:28N 29°37' W 095°00'0 0.0
2017-Dec-09 03:58N 29°37' W 095°00'0 0.0
2017-Dec-09 03:28N 29°37' W 095°00'0 0.0
2017-Dec-09 02:58N 29°37' W 095°00'0 0.0
2017-Dec-09 02:28N 29°37' W 095°00'0 0.0
2017-Dec-09 01:58N 29°37' W 095°00'0 0.0
2017-Dec-09 01:28N 29°37' W 095°00'0 0.0
2017-Dec-09 00:58N 29°37' W 095°00'0 0.0
2017-Dec-09 00:25N 29°37' W 095°00'0 0.0
2017-Dec-08 23:55N 29°37' W 095°00'0 0.0
2017-Dec-08 23:28N 29°37' W 095°00'0 0.0
2017-Dec-08 22:58N 29°37' W 095°00'0 0.0
2017-Dec-08 22:28N 29°37' W 095°00'0 0.0
2017-Dec-08 21:58N 29°37' W 095°00'0 0.0
2017-Dec-08 21:28N 29°37' W 095°00'0 0.0
2017-Dec-08 20:58N 29°37' W 095°00'0 0.0
2017-Dec-08 20:28N 29°37' W 095°00'0 0.0
2017-Dec-08 19:58N 29°37' W 095°00'0 0.0
2017-Dec-08 19:28N 29°37' W 095°00'0 0.0
2017-Dec-08 18:58N 29°37' W 095°00'0 0.0
2017-Dec-08 18:28N 29°37' W 095°00'0 0.0
2017-Dec-08 17:58N 29°37' W 095°00'0 0.0
2017-Dec-08 17:28N 29°37' W 095°00'0 0.0
2017-Dec-08 16:52N 29°37' W 095°00'0 0.0
2017-Dec-08 16:28N 29°37' W 095°00'0 0.0
2017-Dec-08 15:58N 29°37' W 095°00'0 0.0
2017-Dec-08 15:28N 29°37' W 095°00'0 0.0
2017-Dec-08 14:58N 29°37' W 095°00'0 0.0
2017-Dec-08 14:28N 29°37' W 095°00'0 0.0
2017-Dec-08 13:58N 29°37' W 095°00'0 0.0
2017-Dec-08 13:28N 29°37' W 095°00'0 0.0
2017-Dec-08 12:58N 29°37' W 095°00'0 0.0
2017-Dec-08 12:28N 29°37' W 095°00'0 0.0
2017-Dec-08 11:58N 29°37' W 095°00'0 0.0
2017-Dec-08 11:28N 29°37' W 095°00'0 0.0
2017-Dec-08 10:58N 29°37' W 095°00'0 0.0
2017-Dec-08 10:28N 29°37' W 095°00'0 0.0
2017-Dec-08 09:58N 29°37' W 095°00'0 0.0
2017-Dec-08 09:28N 29°37' W 095°00'0 0.0
2017-Dec-08 08:58N 29°37' W 095°00'0 0.0
2017-Dec-08 08:28N 29°37' W 095°00'0 0.0
2017-Dec-08 07:58N 29°37' W 095°00'0 0.0
2017-Dec-08 07:28N 29°37' W 095°00'0 0.0
2017-Dec-08 06:58N 29°37' W 095°00'0 0.0
2017-Dec-08 06:28N 29°37' W 095°00'0 0.0
2017-Dec-08 05:58N 29°37' W 095°00'0 0.0
2017-Dec-08 05:25N 29°37' W 095°00'0 0.0
2017-Dec-08 04:58N 29°37' W 095°00'0 0.0
2017-Dec-08 04:28N 29°37' W 095°00'0 0.0
2017-Dec-08 03:58N 29°37' W 095°00'0 0.0
2017-Dec-08 03:28N 29°37' W 095°00'0 0.0
2017-Dec-08 02:58N 29°37' W 095°00'0 0.0
2017-Dec-08 02:28N 29°37' W 095°00'0 0.0
2017-Dec-08 01:55N 29°37' W 095°00'0 0.0
2017-Dec-08 01:28N 29°37' W 095°00'0 0.0
2017-Dec-08 00:58N 29°37' W 095°00'0 0.0
2017-Dec-08 00:28N 29°37' W 095°00'0 0.0
2017-Dec-07 23:58N 29°37' W 095°00'0 0.0
2017-Dec-07 23:28N 29°37' W 095°00'0 0.0
2017-Dec-07 22:58N 29°37' W 095°00'0 0.0
2017-Dec-07 22:28N 29°37' W 095°00'0 0.0
2017-Dec-07 21:58N 29°37' W 095°00'0 0.0
2017-Dec-07 21:28N 29°37' W 095°00'0 0.0
2017-Dec-07 20:58N 29°37' W 095°00'0 0.0
2017-Dec-07 20:28N 29°37' W 095°00'0 0.0
2017-Dec-07 19:58N 29°37' W 095°00'0 0.0
2017-Dec-07 19:28N 29°37' W 095°00'0 0.0
2017-Dec-07 18:55N 29°37' W 095°00'0 0.0
2017-Dec-07 18:28N 29°37' W 095°00'0 0.0
2017-Dec-07 17:58N 29°37' W 095°00'0 0.0
2017-Dec-07 17:28N 29°37' W 095°00'0 0.0
2017-Dec-07 16:58N 29°37' W 095°00'0 0.0
2017-Dec-07 16:28N 29°37' W 095°00'0 0.0
2017-Dec-07 15:58N 29°37' W 095°00'0 0.0
2017-Dec-07 15:25N 29°37' W 095°00'0 0.0
2017-Dec-07 14:58N 29°37' W 095°00'0 0.0
2017-Dec-07 14:28N 29°37' W 095°00'0 0.0
2017-Dec-07 13:58N 29°37' W 095°00'0 0.0
2017-Dec-07 13:28N 29°37' W 095°00'0 0.0
2017-Dec-07 12:58N 29°37' W 095°00'0 0.0
2017-Dec-07 12:28N 29°37' W 095°00'0 0.0
2017-Dec-07 11:58N 29°37' W 095°00'0 0.0
2017-Dec-07 11:28N 29°37' W 095°00'0 0.0
2017-Dec-07 10:58N 29°37' W 095°00'0 0.0
2017-Dec-07 10:28N 29°37' W 095°00'0 0.0
2017-Dec-07 09:58N 29°37' W 095°00'0 0.0
2017-Dec-07 09:28N 29°37' W 095°00'0 0.0
2017-Dec-07 08:58N 29°37' W 095°00'0 0.0
2017-Dec-07 08:28N 29°37' W 095°00'0 0.0
2017-Dec-07 07:58N 29°37' W 095°00'0 0.0
2017-Dec-07 07:28N 29°37' W 095°00'0 0.0
2017-Dec-07 06:55N 29°37' W 095°00'0 0.0
2017-Dec-07 06:28N 29°37' W 095°00'0 0.0
2017-Dec-07 05:58N 29°37' W 095°00'0 0.0
2017-Dec-07 05:28N 29°37' W 095°00'0 0.0
2017-Dec-07 04:58N 29°37' W 095°00'0 0.0
2017-Dec-07 04:28N 29°37' W 095°00'0 0.0
2017-Dec-07 03:58N 29°37' W 095°00'0 0.0
2017-Dec-07 03:25N 29°37' W 095°00'0 0.0
2017-Dec-07 02:58N 29°37' W 095°00'0 0.0
2017-Dec-07 02:28N 29°37' W 095°00'0 0.0
2017-Dec-07 01:58N 29°37' W 095°00'0 0.0
2017-Dec-07 01:22N 29°37' W 095°00'0 0.4
2017-Dec-07 01:00N 29°37' W 095°00'3 5.8
2017-Dec-07 00:30N 29°36' W 094°57'5 9.4
2017-Dec-07 00:00N 29°32' W 094°54'510.9
2017-Dec-06 23:30N 29°28' W 094°51'712.5
2017-Dec-06 22:54N 29°21' W 094°47'  

Dump ship's entire track history